createdAt,value
2023-03-28T07:29:49.219Z,4.80
2023-03-28T07:39:50.945Z,5.00
2023-03-28T07:49:52.633Z,5.40
2023-03-28T07:59:56.072Z,6.10
2023-03-28T08:09:59.031Z,6.00
2023-03-28T08:30:04.073Z,5.90
2023-03-28T08:40:10.290Z,5.60
2023-03-28T08:54:27.294Z,7.10
2023-03-28T09:04:34.901Z,7.40
2023-03-28T09:14:50.109Z,7.20
2023-03-28T09:25:21.888Z,7.40
2023-03-28T09:35:25.206Z,7.90
2023-03-28T09:45:36.149Z,7.60
2023-03-28T09:55:37.918Z,7.20
2023-03-28T10:05:40.880Z,7.70
2023-03-28T10:15:46.995Z,8.00
2023-03-28T10:25:52.845Z,8.10
2023-03-28T10:36:01.262Z,8.00
2023-03-28T10:46:14.953Z,8.30
2023-03-28T10:56:41.277Z,8.40
2023-03-28T11:07:01.759Z,8.80
2023-03-28T11:17:24.806Z,8.80
2023-03-28T11:27:39.412Z,8.60
2023-03-28T11:38:12.897Z,8.80
2023-03-28T11:48:46.806Z,9.20
2023-03-28T11:58:53.023Z,9.50
2023-03-28T12:08:57.919Z,9.70
2023-03-28T12:19:02.645Z,9.90
2023-03-28T12:29:17.385Z,10.00
2023-03-28T12:39:43.508Z,10.40
2023-03-28T12:50:04.936Z,10.60
2023-03-28T13:00:25.811Z,10.90
2023-03-28T13:10:39.465Z,11.40
2023-03-28T13:20:45.985Z,11.80
2023-03-28T13:31:03.298Z,11.60
2023-03-28T13:41:09.142Z,12.20
2023-03-28T13:51:16.876Z,12.50
2023-03-28T14:01:27.259Z,12.80
2023-03-28T14:11:36.275Z,13.90
2023-03-28T14:21:38.013Z,15.40
2023-03-28T14:31:46.048Z,17.10
2023-03-28T14:41:47.869Z,16.80
2023-03-28T14:51:58.172Z,16.40
2023-03-28T15:02:02.201Z,16.80
2023-03-28T15:12:07.861Z,16.80
2023-03-28T15:22:13.409Z,16.60
2023-03-28T15:32:17.841Z,18.00
2023-03-28T15:42:19.488Z,18.60
2023-03-28T15:52:22.906Z,18.90
2023-03-28T16:42:33.303Z,12.20
2023-03-28T16:52:41.668Z,11.40
2023-03-28T17:02:47.594Z,11.10
2023-03-28T17:12:49.454Z,10.80
2023-03-28T17:28:14.313Z,10.50
2023-03-28T17:38:15.973Z,10.20
2023-03-28T18:01:47.254Z,9.60
2023-03-28T18:11:48.911Z,9.30
2023-03-28T18:21:50.535Z,8.90
2023-03-28T18:31:52.298Z,8.60
2023-03-28T18:41:53.999Z,8.60
2023-03-28T19:02:06.365Z,8.50
2023-03-28T19:12:08.234Z,8.40
2023-03-28T19:22:10.752Z,8.50
2023-03-28T19:32:12.386Z,8.40
2023-03-28T19:42:17.937Z,8.40
2023-03-28T19:52:19.607Z,8.40
2023-03-28T20:02:21.266Z,8.30
2023-03-28T20:12:22.990Z,8.20
2023-03-28T20:22:25.637Z,8.80
2023-03-28T20:32:27.311Z,8.30
2023-03-28T20:42:30.115Z,8.30
2023-03-28T20:52:38.785Z,8.30
2023-03-28T21:02:41.020Z,8.30
2023-03-28T21:12:43.777Z,8.30
2023-03-28T21:22:45.704Z,8.30
2023-03-28T21:32:47.771Z,8.20
2023-03-28T21:45:48.385Z,8.20
2023-03-28T21:55:51.061Z,8.20
2023-03-28T22:05:54.051Z,8.10
2023-03-28T22:15:59.791Z,8.10
2023-03-28T22:26:03.486Z,8.00
2023-03-28T22:46:08.389Z,8.00
2023-03-28T22:56:10.265Z,8.10
2023-03-28T23:06:13.600Z,8.10
2023-03-28T23:16:15.310Z,8.20
2023-03-28T23:26:17.776Z,8.20
2023-03-28T23:36:20.946Z,8.20
2023-03-28T23:46:22.803Z,8.30
2023-03-28T23:56:25.224Z,8.20
